createdAt,value
2017-11-05T00:01:43.210Z,15.73
2017-11-05T00:04:10.728Z,15.48
2017-11-05T00:06:39.476Z,15.00
2017-11-05T00:09:07.096Z,16.02
2017-11-05T00:11:34.631Z,18.45
2017-11-05T00:14:02.947Z,17.30
2017-11-05T00:16:30.480Z,18.25
2017-11-05T00:18:58.021Z,18.25
2017-11-05T00:21:26.371Z,18.48
2017-11-05T00:23:53.966Z,18.85
2017-11-05T00:26:21.872Z,16.85
2017-11-05T00:28:49.439Z,17.20
2017-11-05T00:31:16.957Z,18.65
2017-11-05T00:33:44.485Z,20.15
2017-11-05T00:36:12.034Z,17.15
2017-11-05T00:38:39.574Z,18.67
2017-11-05T00:41:07.106Z,17.75
2017-11-05T00:43:34.664Z,16.27
2017-11-05T00:46:02.184Z,18.65
2017-11-05T00:48:30.045Z,18.25
2017-11-05T00:50:57.636Z,20.90
2017-11-05T00:53:25.972Z,21.00
2017-11-05T00:55:53.496Z,21.73
2017-11-05T00:58:21.098Z,19.80
2017-11-05T01:00:48.840Z,21.62
2017-11-05T01:03:16.576Z,22.62
2017-11-05T01:05:44.553Z,25.60
2017-11-05T01:08:12.259Z,23.35
2017-11-05T01:10:40.561Z,28.23
2017-11-05T01:13:08.093Z,25.37
2017-11-05T01:15:35.616Z,26.95
2017-11-05T01:18:03.512Z,26.80
2017-11-05T01:20:31.861Z,28.25
2017-11-05T01:22:59.373Z,27.92
2017-11-05T01:25:26.915Z,27.17
2017-11-05T01:27:54.455Z,25.02
2017-11-05T01:30:21.999Z,27.40
2017-11-05T01:32:49.536Z,28.10
2017-11-05T01:35:18.321Z,27.98
2017-11-05T01:37:46.597Z,26.12
2017-11-05T01:40:14.887Z,24.95
2017-11-05T01:42:42.574Z,26.52
2017-11-05T01:45:10.623Z,22.67
2017-11-05T01:47:38.137Z,22.08
2017-11-05T01:50:05.660Z,22.10
2017-11-05T01:52:33.184Z,22.58
2017-11-05T01:55:00.940Z,21.42
2017-11-05T01:57:29.320Z,21.80
2017-11-05T01:59:57.167Z,21.20
2017-11-05T02:02:25.544Z,24.12
2017-11-05T02:04:53.123Z,21.48
2017-11-05T02:07:20.871Z,22.62
2017-11-05T02:09:48.461Z,22.75
2017-11-05T02:12:16.783Z,21.85
2017-11-05T02:14:44.333Z,20.58
2017-11-05T02:17:11.864Z,20.55
2017-11-05T02:19:39.417Z,18.37
2017-11-05T02:22:07.711Z,21.90
2017-11-05T02:24:35.222Z,19.65
2017-11-05T02:27:02.789Z,21.42
2017-11-05T02:29:30.310Z,19.37
2017-11-05T02:31:57.839Z,18.52
2017-11-05T02:34:25.376Z,18.40
2017-11-05T02:36:53.744Z,17.85
2017-11-05T02:39:22.042Z,16.67
2017-11-05T02:41:50.378Z,17.85
2017-11-05T02:44:18.108Z,15.68
2017-11-05T02:46:45.621Z,15.40
2017-11-05T02:49:13.388Z,14.93
2017-11-05T02:51:40.903Z,16.17
2017-11-05T02:54:08.506Z,13.75
2017-11-05T02:56:36.265Z,13.32
2017-11-05T02:59:03.825Z,14.32
2017-11-05T03:01:31.347Z,13.43
2017-11-05T03:03:58.876Z,12.45
2017-11-05T03:06:26.712Z,13.38
2017-11-05T03:08:54.275Z,12.50
2017-11-05T03:11:21.810Z,13.52
2017-11-05T03:13:49.342Z,13.10
2017-11-05T03:16:16.863Z,13.43
2017-11-05T03:18:45.247Z,14.43
2017-11-05T03:21:13.556Z,14.38
2017-11-05T03:23:41.066Z,15.05
2017-11-05T03:26:09.247Z,15.20
2017-11-05T03:28:36.781Z,15.15
2017-11-05T03:31:05.106Z,14.10
2017-11-05T03:33:32.639Z,14.40
2017-11-05T03:36:00.931Z,15.95
2017-11-05T03:38:29.196Z,15.38
2017-11-05T03:40:57.513Z,15.23
2017-11-05T03:43:25.029Z,15.70
2017-11-05T03:45:53.328Z,15.38
2017-11-05T03:48:20.888Z,16.55
2017-11-05T03:50:48.387Z,17.42
2017-11-05T03:53:15.898Z,11.32
2017-11-05T03:55:44.221Z,5.72
2017-11-05T03:58:11.740Z,5.85
2017-11-05T04:00:39.255Z,4.85
2017-11-05T04:03:06.805Z,4.35
2017-11-05T04:05:34.304Z,4.25
2017-11-05T04:08:02.561Z,3.40
2017-11-05T04:10:30.095Z,3.67
2017-11-05T04:12:57.606Z,3.40
2017-11-05T04:15:25.891Z,3.55
2017-11-05T04:17:53.408Z,3.12
2017-11-05T04:20:20.931Z,2.80
2017-11-05T04:22:48.443Z,3.45
2017-11-05T04:25:16.728Z,3.42
2017-11-05T04:27:45.011Z,3.33
2017-11-05T04:30:13.288Z,3.65
2017-11-05T04:32:41.574Z,4.05
2017-11-05T04:35:09.327Z,4.00
2017-11-05T04:37:36.893Z,4.70
2017-11-05T04:40:04.418Z,3.87
2017-11-05T04:42:31.937Z,4.55
2017-11-05T04:44:59.467Z,5.07
2017-11-05T04:47:27.740Z,4.45
2017-11-05T04:49:56.021Z,4.20
2017-11-05T04:52:24.300Z,3.80
2017-11-05T04:54:51.812Z,4.10
2017-11-05T04:57:19.316Z,3.60
2017-11-05T04:59:46.839Z,4.10
2017-11-05T05:02:14.759Z,4.43
2017-11-05T05:04:42.327Z,3.53
2017-11-05T05:07:09.837Z,3.22
2017-11-05T05:09:38.243Z,3.40
2017-11-05T05:12:05.902Z,3.90
2017-11-05T05:14:33.399Z,3.47
2017-11-05T05:17:00.928Z,3.10
2017-11-05T05:19:28.436Z,3.60
2017-11-05T05:21:55.958Z,3.90
2017-11-05T05:24:23.525Z,4.20
2017-11-05T05:26:51.019Z,4.03
2017-11-05T05:29:18.521Z,3.62
2017-11-05T05:31:46.053Z,3.45
2017-11-05T05:34:14.309Z,4.15
2017-11-05T05:36:41.802Z,3.37
2017-11-05T05:39:10.095Z,2.90
2017-11-05T05:41:37.613Z,3.72
2017-11-05T05:44:05.109Z,3.20
2017-11-05T05:46:32.622Z,3.97
2017-11-05T05:49:00.135Z,3.53
2017-11-05T05:51:27.912Z,4.20
2017-11-05T05:53:55.549Z,3.50
2017-11-05T05:56:23.092Z,4.28
2017-11-05T05:58:51.377Z,4.37
2017-11-05T06:01:18.903Z,3.85
2017-11-05T06:03:46.420Z,4.10
2017-11-05T06:06:13.916Z,4.12
2017-11-05T06:08:41.422Z,4.45
2017-11-05T06:11:08.936Z,4.65
2017-11-05T06:13:36.455Z,5.07
2017-11-05T06:16:04.422Z,4.37
2017-11-05T06:18:32.400Z,4.22
2017-11-05T06:21:00.221Z,4.85
2017-11-05T06:23:27.803Z,4.85
2017-11-05T06:25:55.827Z,4.70
2017-11-05T06:28:23.341Z,5.07
2017-11-05T06:30:50.852Z,5.10
2017-11-05T06:33:18.373Z,4.90
2017-11-05T06:35:46.083Z,5.97
2017-11-05T06:38:13.790Z,6.20
2017-11-05T06:40:41.758Z,5.97
2017-11-05T06:43:09.317Z,7.32
2017-11-05T06:45:36.825Z,6.72
2017-11-05T06:48:04.352Z,7.93
2017-11-05T06:50:31.840Z,8.05
2017-11-05T06:52:59.351Z,8.73
2017-11-05T06:55:26.886Z,7.00
2017-11-05T06:57:54.827Z,7.03
2017-11-05T07:00:22.608Z,7.80
2017-11-05T07:02:50.323Z,7.25
2017-11-05T07:05:17.830Z,8.07
2017-11-05T07:07:46.106Z,9.02
2017-11-05T07:10:13.749Z,9.38
2017-11-05T07:12:41.974Z,8.50
2017-11-05T07:15:09.638Z,9.82
2017-11-05T07:17:37.198Z,9.57
2017-11-05T07:20:04.714Z,10.98
2017-11-05T07:22:32.989Z,10.50
2017-11-05T07:25:00.512Z,11.95
2017-11-05T07:27:28.020Z,10.68
2017-11-05T07:29:56.299Z,11.75
2017-11-05T07:32:24.664Z,11.38
2017-11-05T07:34:53.905Z,11.57
2017-11-05T07:37:21.673Z,11.20
2017-11-05T07:39:49.289Z,13.43
2017-11-05T07:42:17.564Z,13.40
2017-11-05T07:44:45.846Z,13.57
2017-11-05T07:47:13.445Z,12.90
2017-11-05T07:49:40.947Z,12.10
2017-11-05T07:52:08.465Z,14.80
2017-11-05T07:54:36.020Z,13.52
2017-11-05T07:57:03.523Z,14.20
2017-11-05T07:59:31.044Z,14.43
2017-11-05T08:01:58.596Z,13.32
2017-11-05T08:04:26.270Z,13.57
2017-11-05T08:06:53.777Z,14.55
2017-11-05T08:09:22.095Z,13.90
2017-11-05T08:11:49.616Z,11.65
2017-11-05T08:14:17.904Z,14.65
2017-11-05T08:16:45.635Z,12.35
2017-11-05T08:19:13.994Z,11.63
2017-11-05T08:21:41.512Z,16.37
2017-11-05T08:24:09.404Z,14.18
2017-11-05T08:26:36.928Z,12.20
2017-11-05T08:29:04.473Z,15.15
2017-11-05T08:31:32.945Z,13.15
2017-11-05T08:34:01.255Z,13.45
2017-11-05T08:36:28.801Z,14.70
2017-11-05T08:38:56.380Z,14.25
2017-11-05T08:41:23.903Z,14.35
2017-11-05T08:43:52.193Z,13.35
2017-11-05T08:46:19.759Z,14.32
2017-11-05T08:48:47.291Z,11.73
2017-11-05T08:51:14.806Z,14.47
2017-11-05T08:53:42.472Z,11.83
2017-11-05T08:56:10.814Z,14.57
2017-11-05T08:58:38.340Z,11.63
2017-11-05T09:01:05.900Z,13.50
2017-11-05T09:03:33.462Z,14.60
2017-11-05T09:06:00.991Z,11.10
2017-11-05T09:08:28.507Z,12.50
2017-11-05T09:10:56.818Z,12.43
2017-11-05T09:13:24.320Z,12.33
2017-11-05T09:15:52.072Z,11.00
2017-11-05T09:18:20.025Z,11.90
2017-11-05T09:20:48.718Z,14.20
2017-11-05T09:23:16.880Z,12.30
2017-11-05T09:25:44.456Z,11.70
2017-11-05T09:28:13.329Z,11.00
2017-11-05T09:30:41.015Z,10.80
2017-11-05T09:33:08.647Z,11.20
2017-11-05T09:35:36.173Z,10.80
2017-11-05T09:38:03.691Z,10.37
2017-11-05T09:40:31.231Z,9.63
2017-11-05T09:42:59.101Z,9.73
2017-11-05T09:45:26.693Z,9.70
2017-11-05T09:47:54.257Z,7.70
2017-11-05T09:50:21.759Z,9.00
2017-11-05T09:52:49.259Z,9.03
2017-11-05T09:55:17.513Z,7.67
2017-11-05T09:57:45.057Z,7.83
2017-11-05T10:00:12.603Z,7.03
2017-11-05T10:02:40.171Z,6.83
2017-11-05T10:05:07.687Z,6.50
2017-11-05T10:07:35.970Z,7.80
2017-11-05T10:10:05.325Z,7.20
2017-11-05T10:12:33.021Z,8.20
2017-11-05T10:15:00.534Z,8.20
2017-11-05T10:17:28.069Z,6.83
2017-11-05T10:19:55.598Z,8.27
2017-11-05T10:22:23.108Z,8.60
2017-11-05T10:24:50.615Z,8.37
2017-11-05T10:27:18.139Z,8.20
2017-11-05T10:29:46.132Z,7.20
2017-11-05T10:32:14.563Z,6.07
2017-11-05T10:34:42.883Z,6.80
2017-11-05T10:37:11.029Z,7.60
2017-11-05T10:39:38.669Z,7.17
2017-11-05T10:42:06.197Z,8.00
2017-11-05T10:44:33.893Z,7.17
2017-11-05T10:47:01.491Z,7.83
2017-11-05T10:49:29.025Z,7.07
2017-11-05T10:51:56.553Z,6.60
2017-11-05T10:54:24.097Z,8.57
2017-11-05T10:56:51.672Z,8.90
2017-11-05T10:59:19.956Z,7.50
2017-11-05T11:01:48.237Z,5.90
2017-11-05T11:04:15.787Z,5.47
2017-11-05T11:06:44.072Z,6.37
2017-11-05T11:09:11.620Z,8.00
2017-11-05T11:11:40.129Z,8.17
2017-11-05T11:14:07.644Z,8.87
2017-11-05T11:16:35.176Z,7.67
2017-11-05T11:19:02.743Z,8.27
2017-11-05T11:21:30.267Z,7.63
2017-11-05T11:23:57.779Z,7.50
2017-11-05T11:26:25.294Z,7.73
2017-11-05T11:28:54.139Z,7.00
2017-11-05T11:31:21.800Z,8.07
2017-11-05T11:33:50.107Z,8.97
2017-11-05T11:36:17.614Z,7.80
2017-11-05T11:38:45.922Z,5.00
2017-11-05T11:41:15.494Z,3.47
2017-11-05T11:43:43.047Z,3.67
2017-11-05T11:46:10.554Z,3.60
2017-11-05T11:48:38.850Z,3.95
2017-11-05T11:51:06.369Z,2.25
2017-11-05T11:53:34.638Z,2.60
2017-11-05T11:56:02.161Z,2.10
2017-11-05T11:58:29.656Z,2.58
2017-11-05T12:00:57.171Z,2.33
2017-11-05T12:03:24.692Z,2.40
2017-11-05T12:05:52.975Z,2.30
2017-11-05T12:08:21.297Z,3.22
2017-11-05T12:10:48.829Z,2.60
2017-11-05T12:13:16.364Z,3.65
2017-11-05T12:15:44.639Z,3.30
2017-11-05T12:18:12.921Z,3.40
2017-11-05T12:20:41.208Z,3.72
2017-11-05T12:23:08.700Z,3.17
2017-11-05T12:25:36.210Z,3.40
2017-11-05T12:28:04.526Z,2.95
2017-11-05T12:30:32.111Z,2.85
2017-11-05T12:33:00.170Z,3.65
2017-11-05T12:35:27.671Z,2.97
2017-11-05T12:37:55.631Z,3.20
2017-11-05T12:40:23.308Z,2.62
2017-11-05T12:42:51.602Z,3.10
2017-11-05T12:45:19.113Z,3.83
2017-11-05T12:47:46.643Z,3.37
2017-11-05T12:50:14.204Z,3.35
2017-11-05T12:52:41.722Z,3.80
2017-11-05T12:55:10.865Z,3.10
2017-11-05T12:57:38.366Z,3.23
2017-11-05T13:00:06.249Z,3.50
2017-11-05T13:02:35.624Z,2.90
2017-11-05T13:05:03.254Z,2.57
2017-11-05T13:07:31.092Z,3.70
2017-11-05T13:09:58.913Z,2.93
2017-11-05T13:12:26.446Z,2.63
2017-11-05T13:14:54.004Z,2.53
2017-11-05T13:17:22.068Z,2.83
2017-11-05T13:19:51.309Z,3.17
2017-11-05T13:22:19.040Z,2.97
2017-11-05T13:24:46.716Z,2.80
2017-11-05T13:27:14.403Z,2.80
2017-11-05T13:29:42.716Z,3.20
2017-11-05T13:32:10.298Z,2.90
2017-11-05T13:34:37.937Z,2.77
2017-11-05T13:37:05.465Z,2.60
2017-11-05T13:39:33.142Z,2.43
2017-11-05T13:42:00.691Z,2.90
2017-11-05T13:44:28.964Z,3.07
2017-11-05T13:46:56.484Z,3.13
2017-11-05T13:49:24.310Z,3.27
2017-11-05T13:51:51.952Z,3.47
2017-11-05T13:54:20.331Z,3.10
2017-11-05T13:56:47.902Z,3.30
2017-11-05T13:59:15.677Z,3.53
2017-11-05T14:01:43.269Z,3.00
2017-11-05T14:04:11.165Z,3.00
2017-11-05T14:06:38.904Z,3.37
2017-11-05T14:09:06.921Z,3.50
2017-11-05T14:11:34.965Z,3.20
2017-11-05T14:14:03.342Z,2.77
2017-11-05T14:16:31.187Z,2.70
2017-11-05T14:18:59.813Z,2.80
2017-11-05T14:21:27.997Z,3.53
2017-11-05T14:23:56.044Z,3.10
2017-11-05T14:26:23.707Z,3.63
2017-11-05T14:28:52.354Z,4.28
2017-11-05T14:31:21.116Z,3.67
2017-11-05T14:33:48.732Z,4.20
2017-11-05T14:36:17.155Z,4.53
2017-11-05T14:38:44.880Z,4.55
2017-11-05T14:41:12.642Z,3.90
2017-11-05T14:43:40.629Z,3.72
2017-11-05T14:46:09.099Z,3.90
2017-11-05T14:48:37.448Z,4.20
2017-11-05T14:51:05.365Z,4.45
2017-11-05T14:53:33.140Z,4.50
2017-11-05T14:56:00.845Z,4.43
2017-11-05T14:58:28.913Z,3.53
2017-11-05T15:00:56.651Z,3.12
2017-11-05T15:03:24.275Z,3.80
2017-11-05T15:05:52.668Z,2.92
2017-11-05T15:08:21.047Z,3.70
2017-11-05T15:10:49.538Z,4.55
2017-11-05T15:13:17.310Z,4.68
2017-11-05T15:15:45.173Z,4.72
2017-11-05T15:18:12.876Z,3.90
2017-11-05T15:20:42.101Z,3.37
2017-11-05T15:23:09.782Z,3.70
2017-11-05T15:25:38.204Z,3.47
2017-11-05T15:28:05.846Z,3.35
2017-11-05T15:30:33.455Z,3.17
2017-11-05T15:33:01.050Z,3.53
2017-11-05T15:35:29.457Z,3.78
2017-11-05T15:37:57.060Z,3.72
2017-11-05T15:40:25.403Z,3.60
2017-11-05T15:42:53.119Z,4.85
2017-11-05T15:45:21.513Z,3.65
2017-11-05T15:47:49.163Z,3.35
2017-11-05T15:50:18.067Z,5.35
2017-11-05T15:52:45.934Z,3.60
2017-11-05T15:55:13.884Z,3.08
2017-11-05T15:57:41.575Z,3.45
2017-11-05T16:00:09.141Z,2.87
2017-11-05T16:02:36.774Z,4.20
2017-11-05T16:05:05.331Z,3.50
2017-11-05T16:07:33.203Z,3.30
2017-11-05T16:10:01.548Z,3.90
2017-11-05T16:12:29.466Z,4.05
2017-11-05T16:14:57.148Z,3.83
2017-11-05T16:17:24.887Z,3.60
2017-11-05T16:19:53.494Z,3.97
2017-11-05T16:22:21.570Z,2.90
2017-11-05T16:24:49.491Z,3.65
2017-11-05T16:27:18.292Z,3.95
2017-11-05T16:29:47.176Z,4.68
2017-11-05T16:32:16.731Z,4.20
2017-11-05T16:34:45.017Z,4.32
2017-11-05T16:37:12.830Z,4.07
2017-11-05T16:39:41.543Z,4.37
2017-11-05T16:42:10.512Z,4.62
2017-11-05T16:44:38.918Z,4.93
2017-11-05T16:47:07.564Z,3.70
2017-11-05T16:49:36.511Z,4.75
2017-11-05T16:52:04.614Z,4.35
2017-11-05T16:54:33.281Z,3.67
2017-11-05T16:57:01.465Z,4.15
2017-11-05T16:59:30.013Z,3.22
2017-11-05T17:01:58.046Z,4.03
2017-11-05T17:04:26.224Z,3.92
2017-11-05T17:06:55.134Z,4.28
2017-11-05T17:09:23.856Z,4.40
2017-11-05T17:11:52.306Z,4.78
2017-11-05T17:14:20.307Z,4.22
2017-11-05T17:16:48.174Z,4.82
2017-11-05T17:19:17.407Z,4.43
2017-11-05T17:21:46.020Z,4.45
2017-11-05T17:24:14.783Z,5.43
2017-11-05T17:26:42.758Z,4.35
2017-11-05T17:29:11.535Z,4.60
2017-11-05T17:31:40.186Z,5.18
2017-11-05T17:34:08.286Z,4.97
2017-11-05T17:36:36.403Z,5.53
2017-11-05T17:39:04.420Z,6.12
2017-11-05T17:41:33.296Z,6.53
2017-11-05T17:44:01.200Z,5.47
2017-11-05T17:46:29.247Z,5.95
2017-11-05T17:48:57.824Z,4.20
2017-11-05T17:51:26.144Z,5.50
2017-11-05T17:53:54.012Z,4.70
2017-11-05T17:56:21.845Z,3.78
2017-11-05T17:58:49.545Z,3.42
2017-11-05T18:01:17.529Z,3.83
2017-11-05T18:03:45.823Z,3.42
2017-11-05T18:06:13.641Z,3.92
2017-11-05T18:08:41.445Z,4.70
2017-11-05T18:11:09.546Z,4.20
2017-11-05T18:13:37.992Z,3.50
2017-11-05T18:16:05.489Z,3.35
2017-11-05T18:18:33.016Z,4.60
2017-11-05T18:21:00.539Z,4.10
2017-11-05T18:23:28.037Z,3.50
2017-11-05T18:25:55.525Z,4.22
2017-11-05T18:28:23.092Z,3.97
2017-11-05T18:30:50.846Z,4.10
2017-11-05T18:33:18.492Z,4.70
2017-11-05T18:35:46.758Z,5.28
2017-11-05T18:38:14.272Z,4.93
2017-11-05T18:40:41.805Z,4.75
2017-11-05T18:43:09.334Z,5.50
2017-11-05T18:45:36.850Z,6.68
2017-11-05T18:48:04.887Z,6.00
2017-11-05T18:50:32.431Z,6.22
2017-11-05T18:53:00.725Z,5.30
2017-11-05T18:55:28.996Z,6.15
2017-11-05T18:57:57.272Z,6.25
2017-11-05T19:00:25.554Z,5.50
2017-11-05T19:02:53.827Z,6.53
2017-11-05T19:05:22.081Z,6.35
2017-11-05T19:07:49.602Z,6.30
2017-11-05T19:10:17.125Z,6.18
2017-11-05T19:12:45.408Z,5.87
2017-11-05T19:15:13.069Z,6.25
2017-11-05T19:17:40.934Z,5.93
2017-11-05T19:20:08.694Z,5.70
2017-11-05T19:22:36.186Z,6.55
2017-11-05T19:25:03.701Z,6.20
2017-11-05T19:27:31.970Z,5.90
2017-11-05T19:30:00.229Z,6.75
2017-11-05T19:32:28.156Z,6.75
2017-11-05T19:34:56.899Z,6.60
2017-11-05T19:37:24.412Z,5.53
2017-11-05T19:39:51.940Z,4.65
2017-11-05T19:42:19.581Z,4.90
2017-11-05T19:44:47.124Z,6.05
2017-11-05T19:47:14.648Z,4.50
2017-11-05T19:49:42.284Z,5.10
2017-11-05T19:52:09.818Z,4.12
2017-11-05T19:54:38.094Z,4.40
2017-11-05T19:57:06.662Z,4.85
2017-11-05T19:59:34.207Z,5.10
2017-11-05T20:02:01.724Z,4.53
2017-11-05T20:04:29.271Z,5.90
2017-11-05T20:06:57.537Z,6.07
2017-11-05T20:09:25.797Z,4.90
2017-11-05T20:11:53.306Z,5.30
2017-11-05T20:14:21.393Z,5.50
2017-11-05T20:16:48.927Z,5.65
2017-11-05T20:19:16.460Z,6.05
2017-11-05T20:21:44.725Z,5.78
2017-11-05T20:24:12.236Z,5.90
2017-11-05T20:26:39.758Z,6.25
2017-11-05T20:29:08.041Z,6.35
2017-11-05T20:31:36.309Z,6.75
2017-11-05T20:34:05.546Z,5.80
2017-11-05T20:36:33.034Z,6.20
2017-11-05T20:39:00.527Z,7.20
2017-11-05T20:41:29.038Z,6.95
2017-11-05T20:43:57.008Z,7.07
2017-11-05T20:46:24.926Z,7.45
2017-11-05T20:48:52.441Z,6.82
2017-11-05T20:51:20.065Z,7.12
2017-11-05T20:53:48.337Z,7.25
2017-11-05T20:56:17.758Z,7.68
2017-11-05T20:58:46.065Z,7.65
2017-11-05T21:01:13.556Z,7.53
2017-11-05T21:03:41.078Z,9.07
2017-11-05T21:06:08.652Z,8.15
2017-11-05T21:08:36.159Z,8.18
2017-11-05T21:11:04.480Z,8.30
2017-11-05T21:13:32.668Z,7.87
2017-11-05T21:16:00.176Z,7.95
2017-11-05T21:18:28.451Z,7.37
2017-11-05T21:20:56.856Z,7.55
2017-11-05T21:23:24.478Z,9.30
2017-11-05T21:25:52.761Z,8.93
2017-11-05T21:28:21.082Z,7.68
2017-11-05T21:30:48.638Z,8.05
2017-11-05T21:33:16.180Z,9.15
2017-11-05T21:35:43.940Z,10.38
2017-11-05T21:38:11.460Z,10.02
2017-11-05T21:40:38.979Z,10.80
2017-11-05T21:43:06.508Z,10.00
2017-11-05T21:45:34.784Z,11.15
2017-11-05T21:48:03.061Z,9.35
2017-11-05T21:50:31.390Z,10.88
2017-11-05T21:52:58.895Z,9.23
2017-11-05T21:55:27.175Z,10.07
2017-11-05T21:57:55.460Z,10.57
2017-11-05T22:00:23.723Z,10.23
2017-11-05T22:02:51.998Z,10.88
2017-11-05T22:05:20.290Z,13.18
2017-11-05T22:07:47.847Z,10.90
2017-11-05T22:10:15.361Z,11.73
2017-11-05T22:12:43.573Z,11.60
2017-11-05T22:15:11.988Z,10.35
2017-11-05T22:17:39.490Z,11.75
2017-11-05T22:20:07.015Z,11.07
2017-11-05T22:22:34.565Z,11.77
2017-11-05T22:25:02.071Z,13.20
2017-11-05T22:27:29.592Z,13.38
2017-11-05T22:29:57.145Z,11.57
2017-11-05T22:32:24.670Z,12.30
2017-11-05T22:34:52.506Z,13.10
2017-11-05T22:37:20.905Z,10.88
2017-11-05T22:39:49.204Z,10.65
2017-11-05T22:42:16.716Z,10.98
2017-11-05T22:44:44.254Z,12.35
2017-11-05T22:47:11.768Z,11.85
2017-11-05T22:49:40.179Z,11.93
2017-11-05T22:52:07.714Z,12.90
2017-11-05T22:54:35.239Z,11.43
2017-11-05T22:57:02.763Z,12.68
2017-11-05T22:59:30.286Z,11.23
2017-11-05T23:01:58.609Z,12.85
2017-11-05T23:04:26.118Z,12.40
2017-11-05T23:06:54.543Z,12.35
2017-11-05T23:09:22.092Z,12.65
2017-11-05T23:11:49.616Z,11.43
2017-11-05T23:14:17.930Z,11.95
2017-11-05T23:16:45.485Z,12.25
2017-11-05T23:19:13.000Z,11.60
2017-11-05T23:21:41.301Z,13.30
2017-11-05T23:24:09.003Z,12.77
2017-11-05T23:26:36.859Z,14.95
2017-11-05T23:29:04.380Z,15.10
2017-11-05T23:31:32.653Z,14.73
2017-11-05T23:34:00.937Z,14.50
2017-11-05T23:36:28.452Z,13.95
2017-11-05T23:38:55.947Z,14.15
2017-11-05T23:41:23.471Z,15.50
2017-11-05T23:43:51.017Z,15.48
2017-11-05T23:46:18.520Z,16.05
2017-11-05T23:48:46.789Z,14.50
2017-11-05T23:51:15.092Z,14.95
2017-11-05T23:53:42.606Z,13.70
2017-11-05T23:56:10.110Z,15.68
2017-11-05T23:58:37.639Z,14.35
